createdAt,value
2023-01-19T00:00:49.503Z,13.23
2023-01-19T00:03:16.273Z,15.35
2023-01-19T00:05:43.926Z,15.40
2023-01-19T00:08:17.570Z,12.63
2023-01-19T00:10:50.981Z,11.10
2023-01-19T00:13:17.715Z,10.90
2023-01-19T00:15:44.289Z,10.30
2023-01-19T00:18:11.345Z,10.20
2023-01-19T00:20:41.518Z,13.48
2023-01-19T00:23:08.802Z,12.50
2023-01-19T00:25:42.261Z,16.80
2023-01-19T00:28:12.432Z,9.68
2023-01-19T00:30:39.626Z,10.60
2023-01-19T00:33:06.179Z,12.15
2023-01-19T00:35:34.586Z,11.15
2023-01-19T00:38:03.102Z,10.43
2023-01-19T00:40:29.688Z,11.77
2023-01-19T00:42:56.212Z,8.75
2023-01-19T00:45:24.234Z,9.00
2023-01-19T00:47:57.053Z,10.27
2023-01-19T00:50:25.272Z,13.13
2023-01-19T00:52:52.669Z,12.25
2023-01-19T00:55:19.320Z,12.00
2023-01-19T00:57:45.863Z,11.45
2023-01-19T01:00:16.342Z,11.90
2023-01-19T01:02:44.341Z,15.05
2023-01-19T01:05:12.213Z,11.73
2023-01-19T01:07:44.537Z,10.45
2023-01-19T01:10:13.906Z,10.85
2023-01-19T01:12:42.013Z,9.98
2023-01-19T01:15:22.891Z,12.35
2023-01-19T01:17:59.377Z,9.07
2023-01-19T01:23:26.473Z,11.10
2023-01-19T01:26:02.486Z,13.07
2023-01-19T01:28:29.304Z,14.77
2023-01-19T01:30:57.110Z,12.90
2023-01-19T01:33:39.950Z,13.25
2023-01-19T01:36:09.212Z,14.82
2023-01-19T01:38:35.748Z,11.32
2023-01-19T01:41:02.469Z,12.15
2023-01-19T01:43:43.723Z,12.75
2023-01-19T01:46:11.751Z,18.02
2023-01-19T01:48:40.408Z,16.83
2023-01-19T01:51:24.614Z,13.30
2023-01-19T01:54:10.294Z,12.70
2023-01-19T01:56:43.710Z,11.68
2023-01-19T01:59:25.877Z,11.93
2023-01-19T02:02:14.528Z,11.70
2023-01-19T02:04:47.455Z,9.07
2023-01-19T02:10:20.611Z,9.18
2023-01-19T02:13:06.360Z,11.30
2023-01-19T02:15:33.156Z,9.63
2023-01-19T02:17:59.676Z,9.10
2023-01-19T02:20:29.717Z,14.05
2023-01-19T02:23:02.348Z,12.23
2023-01-19T02:25:29.221Z,13.50
2023-01-19T02:27:56.656Z,8.52
2023-01-19T02:30:23.506Z,9.13
2023-01-19T02:32:50.176Z,12.43
2023-01-19T02:35:16.828Z,11.15
2023-01-19T02:37:44.979Z,9.65
2023-01-19T02:40:14.163Z,7.18
2023-01-19T02:42:50.136Z,7.88
2023-01-19T02:45:20.656Z,7.85
2023-01-19T02:47:50.062Z,9.88
2023-01-19T02:50:51.706Z,23.73
2023-01-19T02:53:45.772Z,7.07
2023-01-19T02:56:39.518Z,6.57
2023-01-19T02:59:23.289Z,8.27
2023-01-19T03:02:05.747Z,8.38
2023-01-19T03:05:05.034Z,7.65
2023-01-19T03:07:57.518Z,9.57
2023-01-19T03:10:31.552Z,7.50
2023-01-19T03:13:04.275Z,8.35
2023-01-19T03:15:37.063Z,11.60
2023-01-19T03:18:08.951Z,8.02
2023-01-19T03:20:36.662Z,11.27
2023-01-19T03:23:08.189Z,7.68
2023-01-19T03:25:40.323Z,9.18
2023-01-19T03:28:06.901Z,9.63
2023-01-19T03:30:40.372Z,9.98
2023-01-19T03:33:17.429Z,7.30
2023-01-19T03:35:49.235Z,9.30
2023-01-19T03:40:45.162Z,8.48
2023-01-19T03:43:13.149Z,8.48
2023-01-19T03:45:40.172Z,21.52
2023-01-19T03:48:07.339Z,37.42
2023-01-19T03:50:33.961Z,34.10
2023-01-19T03:53:09.628Z,20.70
2023-01-19T03:55:38.409Z,18.98
2023-01-19T03:58:05.244Z,13.15
2023-01-19T04:00:32.363Z,10.57
2023-01-19T04:02:59.303Z,13.00
2023-01-19T04:05:26.042Z,13.45
2023-01-19T04:07:52.871Z,9.27
2023-01-19T04:10:20.103Z,13.02
2023-01-19T04:12:47.096Z,10.05
2023-01-19T04:15:14.492Z,7.03
2023-01-19T04:17:41.873Z,6.57
2023-01-19T04:20:09.303Z,5.88
2023-01-19T04:22:35.951Z,4.03
2023-01-19T04:25:03.056Z,3.75
2023-01-19T04:27:29.551Z,4.82
2023-01-19T04:29:56.432Z,7.70
2023-01-19T04:32:23.012Z,6.28
2023-01-19T04:34:49.534Z,11.00
2023-01-19T04:37:16.140Z,5.82
2023-01-19T04:39:42.955Z,5.82
2023-01-19T04:42:09.522Z,5.32
2023-01-19T04:44:36.075Z,5.35
2023-01-19T04:47:03.337Z,6.78
2023-01-19T04:49:29.846Z,5.30
2023-01-19T04:51:56.456Z,4.47
2023-01-19T04:54:22.995Z,5.22
2023-01-19T04:56:49.564Z,6.28
2023-01-19T04:59:16.086Z,4.78
2023-01-19T05:01:42.683Z,5.97
2023-01-19T05:04:09.232Z,5.63
2023-01-19T05:06:35.855Z,4.93
2023-01-19T05:09:02.421Z,5.78
2023-01-19T05:11:28.940Z,6.40
2023-01-19T05:13:55.482Z,6.32
2023-01-19T05:16:22.067Z,5.22
2023-01-19T05:18:48.621Z,5.25
2023-01-19T05:21:15.241Z,4.60
2023-01-19T05:23:41.813Z,5.15
2023-01-19T05:26:09.609Z,4.88
2023-01-19T05:28:37.190Z,3.53
2023-01-19T05:31:04.501Z,4.07
2023-01-19T05:33:31.171Z,4.28
2023-01-19T05:35:57.707Z,7.68
2023-01-19T05:38:34.652Z,6.28
2023-01-19T05:41:02.422Z,3.58
2023-01-19T05:43:28.973Z,4.95
2023-01-19T05:45:55.527Z,4.88
2023-01-19T05:48:22.070Z,5.07
2023-01-19T05:50:49.645Z,4.75
2023-01-19T05:53:17.152Z,4.20
2023-01-19T05:55:43.780Z,4.85
2023-01-19T05:58:10.302Z,6.82
2023-01-19T06:00:36.878Z,4.68
2023-01-19T06:03:04.053Z,5.68
2023-01-19T06:05:30.889Z,5.55
2023-01-19T06:07:57.524Z,6.07
2023-01-19T06:10:24.085Z,5.03
2023-01-19T06:12:52.455Z,4.38
2023-01-19T06:15:19.211Z,4.25
2023-01-19T06:17:45.813Z,6.55
2023-01-19T06:20:14.062Z,9.13
2023-01-19T06:22:40.664Z,5.32
2023-01-19T06:25:07.413Z,11.57
2023-01-19T06:27:33.956Z,6.05
2023-01-19T06:30:00.495Z,6.97
2023-01-19T06:32:27.181Z,8.60
2023-01-19T06:34:54.205Z,9.20
2023-01-19T06:37:21.074Z,8.27
2023-01-19T06:39:47.859Z,5.05
2023-01-19T06:42:14.616Z,7.28
2023-01-19T06:44:47.343Z,5.03
2023-01-19T06:47:16.321Z,7.75
2023-01-19T06:49:43.453Z,6.97
2023-01-19T06:52:11.413Z,4.68
2023-01-19T06:54:38.242Z,4.07
2023-01-19T06:57:04.820Z,5.25
2023-01-19T06:59:31.876Z,5.60
2023-01-19T07:01:59.068Z,4.30
2023-01-19T07:04:27.072Z,5.40
2023-01-19T07:06:53.740Z,3.92
2023-01-19T07:09:20.505Z,4.00
2023-01-19T07:11:48.045Z,2.85
2023-01-19T07:14:15.045Z,4.40
2023-01-19T07:16:41.637Z,4.95
2023-01-19T07:19:10.791Z,3.28
2023-01-19T07:21:37.612Z,4.50
2023-01-19T07:24:04.308Z,3.58
2023-01-19T07:26:30.946Z,4.47
2023-01-19T07:28:57.538Z,3.63
2023-01-19T07:31:24.233Z,9.57
2023-01-19T07:33:50.822Z,9.95
2023-01-19T07:36:17.504Z,8.35
2023-01-19T07:38:44.148Z,7.90
2023-01-19T07:41:11.340Z,7.20
2023-01-19T07:43:37.890Z,8.90
2023-01-19T07:46:06.280Z,4.72
2023-01-19T07:48:32.876Z,3.85
2023-01-19T07:51:13.046Z,5.45
2023-01-19T07:53:41.856Z,3.75
2023-01-19T07:56:08.851Z,4.60
2023-01-19T07:58:35.382Z,5.53
2023-01-19T08:01:09.593Z,3.72
2023-01-19T08:03:36.251Z,4.25
2023-01-19T08:06:05.117Z,5.13
2023-01-19T08:08:32.924Z,5.55
2023-01-19T08:11:00.188Z,4.57
2023-01-19T08:13:27.008Z,5.22
2023-01-19T08:15:54.240Z,4.85
2023-01-19T08:18:21.095Z,3.80
2023-01-19T08:20:47.754Z,4.45
2023-01-19T08:23:14.373Z,3.72
2023-01-19T08:25:44.343Z,4.30
2023-01-19T08:28:13.190Z,5.28
2023-01-19T08:30:40.742Z,3.38
2023-01-19T08:33:08.230Z,4.43
2023-01-19T08:35:41.299Z,4.05
2023-01-19T08:38:09.098Z,4.43
2023-01-19T08:40:39.856Z,3.47
2023-01-19T08:43:09.200Z,3.03
2023-01-19T08:45:36.915Z,4.88
2023-01-19T08:48:06.275Z,4.82
2023-01-19T08:50:34.158Z,5.78
2023-01-19T08:53:02.739Z,6.30
2023-01-19T08:55:30.411Z,4.68
2023-01-19T08:57:59.992Z,4.22
2023-01-19T09:00:27.388Z,3.25
2023-01-19T09:02:54.953Z,2.70
2023-01-19T09:05:21.620Z,2.67
2023-01-19T09:07:48.291Z,3.38
2023-01-19T09:10:16.217Z,5.25
2023-01-19T09:12:44.892Z,4.68
2023-01-19T09:15:13.904Z,3.92
2023-01-19T09:17:42.216Z,3.30
2023-01-19T09:20:10.848Z,3.90
2023-01-19T09:22:38.504Z,4.28
2023-01-19T09:25:06.659Z,4.72
2023-01-19T09:27:33.271Z,3.30
2023-01-19T09:29:59.833Z,2.90
2023-01-19T09:32:26.379Z,4.18
2023-01-19T09:34:55.009Z,3.65
2023-01-19T09:37:21.575Z,4.07
2023-01-19T09:39:48.205Z,4.40
2023-01-19T09:42:31.181Z,4.72
2023-01-19T09:44:57.718Z,4.10
2023-01-19T09:47:29.501Z,6.88
2023-01-19T09:52:37.441Z,5.85
2023-01-19T09:55:04.080Z,6.10
2023-01-19T09:57:32.135Z,5.57
2023-01-19T09:59:59.649Z,3.45
2023-01-19T10:02:35.488Z,3.97
2023-01-19T10:05:31.740Z,3.88
2023-01-19T10:08:25.965Z,4.80
2023-01-19T10:10:54.685Z,3.70
2023-01-19T10:13:43.485Z,6.25
2023-01-19T10:16:26.096Z,8.13
2023-01-19T10:18:56.521Z,6.80
2023-01-19T10:21:43.191Z,8.70
2023-01-19T10:24:33.233Z,5.88
2023-01-19T10:27:00.476Z,9.57
2023-01-19T10:29:36.364Z,5.88
2023-01-19T10:32:14.779Z,5.80
2023-01-19T10:34:41.752Z,5.00
2023-01-19T10:37:29.594Z,6.57
2023-01-19T10:40:02.284Z,4.18
2023-01-19T10:42:30.245Z,4.28
2023-01-19T10:44:56.990Z,4.75
2023-01-19T10:47:33.445Z,6.43
2023-01-19T10:50:00.093Z,4.57
2023-01-19T10:52:36.286Z,5.65
2023-01-19T10:55:06.483Z,2.70
2023-01-19T10:57:40.754Z,2.95
2023-01-19T11:00:31.931Z,3.25
2023-01-19T11:02:58.870Z,2.63
2023-01-19T11:05:28.960Z,4.40
2023-01-19T11:07:56.620Z,3.13
2023-01-19T11:10:28.686Z,4.15
2023-01-19T11:13:12.338Z,2.65
2023-01-19T11:15:41.870Z,2.92
2023-01-19T11:18:08.709Z,2.85
2023-01-19T11:20:54.040Z,2.85
2023-01-19T11:23:34.470Z,4.00
2023-01-19T11:26:05.311Z,2.55
2023-01-19T11:28:36.415Z,3.80
2023-01-19T11:31:17.668Z,2.88
2023-01-19T11:33:48.396Z,2.83
2023-01-19T11:36:16.293Z,2.03
2023-01-19T11:38:44.755Z,3.35
2023-01-19T11:41:29.667Z,3.92
2023-01-19T11:44:20.731Z,4.03
2023-01-19T11:46:52.515Z,3.58
2023-01-19T11:51:56.579Z,3.85
2023-01-19T11:54:33.235Z,4.03
2023-01-19T11:57:00.526Z,5.15
2023-01-19T11:59:27.155Z,3.65
2023-01-19T12:01:57.852Z,3.65
2023-01-19T12:04:33.379Z,3.33
2023-01-19T12:07:07.446Z,3.33
2023-01-19T12:09:42.735Z,5.00
2023-01-19T12:12:24.227Z,4.22
2023-01-19T12:14:54.777Z,4.88
2023-01-19T12:17:30.034Z,3.22
2023-01-19T12:20:06.700Z,2.63
2023-01-19T12:22:42.894Z,2.45
2023-01-19T12:25:25.144Z,3.72
2023-01-19T12:27:53.304Z,4.13
2023-01-19T12:30:26.483Z,4.40
2023-01-19T12:33:21.807Z,5.45
2023-01-19T12:36:16.460Z,3.95
2023-01-19T12:38:46.022Z,3.22
2023-01-19T12:41:18.310Z,3.83
2023-01-19T12:43:44.920Z,3.55
2023-01-19T12:46:31.211Z,3.55
2023-01-19T12:49:20.353Z,2.33
2023-01-19T12:51:47.862Z,3.35
2023-01-19T12:54:43.579Z,4.05
2023-01-19T12:57:25.112Z,3.40
2023-01-19T13:00:00.036Z,3.55
2023-01-19T13:02:26.970Z,4.57
2023-01-19T13:05:15.168Z,5.10
2023-01-19T13:08:03.006Z,4.63
2023-01-19T13:11:13.036Z,2.88
2023-01-19T13:13:48.389Z,3.75
2023-01-19T13:16:17.925Z,3.03
2023-01-19T13:19:01.624Z,4.35
2023-01-19T13:21:39.097Z,3.83
2023-01-19T13:24:08.263Z,5.88
2023-01-19T13:26:41.507Z,4.13
2023-01-19T13:29:14.287Z,3.15
2023-01-19T13:31:44.526Z,39.63
2023-01-19T13:34:18.335Z,7.20
2023-01-19T13:36:47.472Z,5.78
2023-01-19T13:39:18.710Z,4.82
2023-01-19T13:41:49.834Z,4.53
2023-01-19T13:44:33.087Z,4.00
2023-01-19T13:47:03.516Z,4.32
2023-01-19T13:49:37.060Z,4.15
2023-01-19T13:52:17.342Z,4.93
2023-01-19T13:54:54.592Z,2.92
2023-01-19T13:57:27.128Z,4.25
2023-01-19T14:00:16.411Z,2.97
2023-01-19T14:03:01.741Z,2.58
2023-01-19T14:05:36.250Z,3.63
2023-01-19T14:08:08.726Z,2.38
2023-01-19T14:10:37.094Z,4.13
2023-01-19T14:13:06.827Z,3.25
2023-01-19T14:15:34.658Z,3.08
2023-01-19T14:18:13.718Z,3.45
2023-01-19T14:20:41.071Z,4.10
2023-01-19T14:23:36.215Z,3.58
2023-01-19T14:26:02.853Z,2.80
2023-01-19T14:28:32.096Z,2.15
2023-01-19T14:31:03.874Z,2.70
2023-01-19T14:33:40.945Z,6.15
2023-01-19T14:36:13.444Z,3.13
2023-01-19T14:38:48.616Z,3.90
2023-01-19T14:41:25.538Z,3.45
2023-01-19T14:43:52.373Z,4.43
2023-01-19T14:46:20.369Z,2.22
2023-01-19T14:48:49.061Z,3.15
2023-01-19T14:51:20.466Z,2.97
2023-01-19T14:53:53.104Z,3.72
2023-01-19T14:56:28.608Z,2.90
2023-01-19T14:58:56.797Z,2.35
2023-01-19T15:01:28.470Z,3.22
2023-01-19T15:06:27.127Z,9.23
2023-01-19T15:08:56.076Z,10.23
2023-01-19T15:11:30.213Z,11.57
2023-01-19T15:13:57.259Z,14.35
2023-01-19T15:16:24.468Z,7.05
2023-01-19T15:18:53.954Z,5.53
2023-01-19T15:21:28.763Z,4.55
2023-01-19T15:23:55.512Z,2.45
2023-01-19T15:26:27.660Z,2.90
2023-01-19T15:28:56.367Z,2.33
2023-01-19T15:31:25.494Z,2.33
2023-01-19T15:33:52.105Z,2.45
2023-01-19T15:36:21.327Z,2.22
2023-01-19T15:38:50.781Z,2.80
2023-01-19T15:41:29.775Z,7.82
2023-01-19T15:43:56.487Z,3.25
2023-01-19T15:46:25.080Z,1.70
2023-01-19T15:48:52.756Z,2.13
2023-01-19T15:51:22.039Z,2.25
2023-01-19T15:53:49.047Z,3.25
2023-01-19T15:56:23.578Z,2.00
2023-01-19T15:58:51.542Z,2.08
2023-01-19T16:01:21.698Z,1.50
2023-01-19T16:03:49.299Z,2.75
2023-01-19T16:06:17.805Z,4.32
2023-01-19T16:08:44.727Z,3.08
2023-01-19T16:11:14.742Z,2.55
2023-01-19T16:13:45.754Z,1.90
2023-01-19T16:16:18.304Z,1.58
2023-01-19T16:18:45.581Z,2.78
2023-01-19T16:21:12.428Z,2.38
2023-01-19T16:23:39.265Z,3.05
2023-01-19T16:26:22.255Z,2.53
2023-01-19T16:28:48.811Z,5.45
2023-01-19T16:31:16.582Z,2.63
2023-01-19T16:33:44.995Z,2.75
2023-01-19T16:36:30.051Z,2.67
2023-01-19T16:39:02.079Z,2.13
2023-01-19T16:41:28.870Z,2.60
2023-01-19T16:43:57.063Z,3.65
2023-01-19T16:46:26.397Z,2.65
2023-01-19T16:48:53.420Z,2.22
2023-01-19T16:51:20.200Z,3.70
2023-01-19T16:53:49.740Z,3.25
2023-01-19T16:56:17.027Z,3.60
2023-01-19T16:58:43.798Z,3.55
2023-01-19T17:01:13.724Z,3.75
2023-01-19T17:03:41.203Z,3.85
2023-01-19T17:06:10.047Z,4.43
2023-01-19T17:08:36.872Z,4.60
2023-01-19T17:11:13.127Z,3.75
2023-01-19T17:13:39.678Z,2.92
2023-01-19T17:16:06.510Z,3.53
2023-01-19T17:18:35.447Z,2.88
2023-01-19T17:21:04.875Z,3.25
2023-01-19T17:23:31.831Z,5.15
2023-01-19T17:25:59.425Z,5.00
2023-01-19T17:28:26.343Z,4.85
2023-01-19T17:30:53.377Z,4.97
2023-01-19T17:33:24.807Z,7.47
2023-01-19T17:35:51.357Z,5.53
2023-01-19T17:38:17.890Z,5.90
2023-01-19T17:40:44.437Z,5.72
2023-01-19T17:43:10.960Z,8.05
2023-01-19T17:45:38.036Z,7.60
2023-01-19T17:48:05.226Z,11.48
2023-01-19T17:50:34.655Z,8.57
2023-01-19T17:53:01.336Z,9.25
2023-01-19T17:55:27.949Z,7.75
2023-01-19T17:57:54.531Z,9.18
2023-01-19T18:00:21.455Z,7.00
2023-01-19T18:02:51.784Z,10.30
2023-01-19T18:05:19.213Z,7.80
2023-01-19T18:07:46.960Z,10.13
2023-01-19T18:10:15.071Z,8.73
2023-01-19T18:12:42.085Z,6.80
2023-01-19T18:15:09.628Z,7.38
2023-01-19T18:17:36.149Z,6.57
2023-01-19T18:20:03.228Z,8.48
2023-01-19T18:22:29.857Z,8.20
2023-01-19T18:24:56.451Z,7.43
2023-01-19T18:27:23.125Z,6.97
2023-01-19T18:29:49.714Z,6.20
2023-01-19T18:32:16.353Z,6.25
2023-01-19T18:34:43.223Z,6.00
2023-01-19T18:37:09.847Z,5.43
2023-01-19T18:39:36.532Z,5.57
2023-01-19T18:42:03.662Z,5.93
2023-01-19T18:44:30.693Z,5.25
2023-01-19T18:47:00.007Z,6.32
2023-01-19T18:49:26.761Z,11.95
2023-01-19T18:51:53.328Z,33.78
2023-01-19T18:54:19.955Z,16.15
2023-01-19T18:56:46.539Z,12.23
2023-01-19T18:59:13.081Z,8.82
2023-01-19T19:01:39.786Z,9.90
2023-01-19T19:04:08.143Z,10.90
2023-01-19T19:06:35.814Z,10.75
2023-01-19T19:09:03.349Z,9.13
2023-01-19T19:11:30.186Z,8.40
2023-01-19T19:13:59.748Z,10.85
2023-01-19T19:16:26.698Z,9.93
2023-01-19T19:18:53.200Z,11.30
2023-01-19T19:21:21.304Z,7.88
2023-01-19T19:23:56.297Z,10.23
2023-01-19T19:26:24.294Z,9.73
2023-01-19T19:28:51.143Z,10.77
2023-01-19T19:31:20.603Z,8.25
2023-01-19T19:33:48.672Z,7.65
2023-01-19T19:36:15.387Z,8.80
2023-01-19T19:38:42.923Z,8.60
2023-01-19T19:41:12.681Z,8.95
2023-01-19T19:43:39.688Z,9.45
2023-01-19T19:46:08.651Z,9.68
2023-01-19T19:48:38.142Z,10.55
2023-01-19T19:51:18.152Z,6.72
2023-01-19T19:53:45.869Z,9.15
2023-01-19T19:56:13.193Z,15.75
2023-01-19T19:58:41.806Z,10.70
2023-01-19T20:01:14.202Z,16.30
2023-01-19T20:03:41.788Z,14.27
2023-01-19T20:06:13.717Z,16.95
2023-01-19T20:08:40.653Z,17.00
2023-01-19T20:11:16.422Z,11.88
2023-01-19T20:13:44.540Z,14.07
2023-01-19T20:16:14.022Z,24.08
2023-01-19T20:18:42.940Z,19.10
2023-01-19T20:21:25.365Z,20.63
2023-01-19T20:23:53.065Z,16.73
2023-01-19T20:26:22.950Z,17.52
2023-01-19T20:28:49.537Z,21.00
2023-01-19T20:31:19.597Z,21.75
2023-01-19T20:33:47.890Z,23.65
2023-01-19T20:36:14.675Z,18.80
2023-01-19T20:38:42.227Z,30.55
2023-01-19T20:41:10.371Z,20.83
2023-01-19T20:43:37.391Z,15.63
2023-01-19T20:46:04.540Z,15.13
2023-01-19T20:48:31.530Z,14.90
2023-01-19T20:51:10.240Z,13.95
2023-01-19T20:53:38.464Z,12.68
2023-01-19T20:56:11.369Z,19.90
2023-01-19T20:58:38.400Z,22.05
2023-01-19T21:01:12.998Z,18.60
2023-01-19T21:03:39.672Z,15.27
2023-01-19T21:06:06.720Z,23.15
2023-01-19T21:08:33.593Z,21.50
2023-01-19T21:11:00.252Z,20.50
2023-01-19T21:13:27.398Z,15.50
2023-01-19T21:15:53.952Z,20.35
2023-01-19T21:18:20.483Z,20.70
2023-01-19T21:20:50.100Z,19.77
2023-01-19T21:23:18.980Z,21.02
2023-01-19T21:25:50.843Z,13.65
2023-01-19T21:28:18.723Z,15.80
2023-01-19T21:30:46.135Z,16.42
2023-01-19T21:33:12.807Z,19.35
2023-01-19T21:35:39.877Z,13.80
2023-01-19T21:38:08.851Z,16.02
2023-01-19T21:40:36.787Z,15.63
2023-01-19T21:43:03.332Z,16.77
2023-01-19T21:45:29.863Z,12.85
2023-01-19T21:47:56.397Z,13.00
2023-01-19T21:50:23.100Z,14.27
2023-01-19T21:52:49.621Z,16.55
2023-01-19T21:55:16.923Z,13.18
2023-01-19T21:57:43.495Z,14.02
2023-01-19T22:00:10.555Z,11.25
2023-01-19T22:02:39.158Z,13.95
2023-01-19T22:05:06.696Z,11.85
2023-01-19T22:07:33.526Z,13.57
2023-01-19T22:10:00.357Z,14.32
2023-01-19T22:12:27.074Z,18.02
2023-01-19T22:14:53.803Z,16.67
2023-01-19T22:17:20.407Z,17.23
2023-01-19T22:19:48.190Z,14.68
2023-01-19T22:22:15.045Z,16.88
2023-01-19T22:24:46.497Z,17.17
2023-01-19T22:27:13.499Z,19.90
2023-01-19T22:29:40.044Z,16.77
2023-01-19T22:32:07.090Z,15.75
2023-01-19T22:34:34.036Z,20.48
2023-01-19T22:37:00.822Z,24.75
2023-01-19T22:39:27.497Z,25.83
2023-01-19T22:41:54.013Z,21.95
2023-01-19T22:44:21.677Z,18.67
2023-01-19T22:46:49.792Z,12.45
2023-01-19T22:49:17.973Z,10.20
2023-01-19T22:51:44.943Z,11.60
2023-01-19T22:54:12.194Z,10.00
2023-01-19T22:56:40.500Z,10.18
2023-01-19T22:59:07.441Z,11.38
2023-01-19T23:01:39.019Z,11.43
2023-01-19T23:04:06.779Z,15.10
2023-01-19T23:06:36.171Z,10.75
2023-01-19T23:09:09.722Z,12.63
2023-01-19T23:11:41.892Z,13.82
2023-01-19T23:14:14.745Z,12.43
2023-01-19T23:16:41.750Z,12.35
2023-01-19T23:19:11.043Z,11.10
2023-01-19T23:21:37.598Z,13.55
2023-01-19T23:24:05.058Z,15.45
2023-01-19T23:26:37.898Z,12.45
2023-01-19T23:29:13.452Z,9.50
2023-01-19T23:31:43.472Z,15.13
2023-01-19T23:34:12.047Z,14.25
2023-01-19T23:36:39.949Z,11.77
2023-01-19T23:39:15.694Z,15.00
2023-01-19T23:41:42.340Z,13.65
2023-01-19T23:44:09.106Z,13.32
2023-01-19T23:46:35.681Z,11.93
2023-01-19T23:49:02.363Z,16.27
2023-01-19T23:51:30.717Z,14.48
2023-01-19T23:53:59.082Z,15.50
2023-01-19T23:56:30.864Z,18.10
